Terminal Aerodrome Forecast
Issued by NWS

Home | Current Version | Previous Version | Graphics & Text | Print | Product List | Glossary On
Versions: 1 2 3 4 5 6 7 8 9 10 11 12 13 14
000
FTUS45 KGGW 152333 AAB
TAFGDV
TAF AMD
KGDV 152333Z 1600/1624 24008KT P6SM BKN110
     FM160800 30012KT P6SM VCSH OVC040
     FM160900 30012KT P6SM OVC045=

USA.gov is the U.S. government's official web portal to all federal, state and local government web resources and services.